< < Back
Terminal Aerodrome Forecast


Current Version              Previous Versions:   1  2  3  4  5  6  7  8  9  

Terminal Aerodrome Forecast

374
FTAK31 PAJN 051100
TAFAHN
TAF
PAHN 051120Z 0512/0612 VRB03KT P6SM BKN200
     FM051800 12006KT P6SM SCT200
     FM052100 12008KT P6SM SCT200
     FM060400 VRB03KT P6SM SCT200
      AMD LTD TO CLD VIS AND WIND=

Latest METAR

708
SAUS70 KWBC 051800 RRA
MTRAHN
METAR KAHN 051751Z VRB04KT 10SM FEW028 BKN036 OVC047 27/19 A3013 RMK AO2
SLP195 T02670189 10283 20211 58004


USA.gov is the U.S. government's official web portal to all federal, state and local government web resources and services.